HTMG

Morogoro Airport

Morogoro, Tanzania
METAR HTMG 150500Z 00000KT 9999 SCT020 19/17 Q1022
Observed Flight Rules
Aug-15 @ 05:00 UTC (17 hours ago) Visual Flight Rules
Visibility Clouds
10,000+ meters
  • Scattered at 2,000' AGL
Temperatures Readings
Current 19°C / 66°F
Dewpoint 17°C / 63°F
Humidity 88%
Altimeter 30.18" Hg
Pressure 1022 hPa
Elevation 526
METAR HTMG 150500Z 00000KT 9999 SCT020 19/17 Q1022
Observed Flight Rules
Aug-15 @ 05:00 UTC
(17 hours ago)
VFR
Clouds
  • Scattered at 2,000' AGL
Temperature Dewpoint
19°C / 66°F 17°C / 63°F
Humidity Altimeter Pressure
88% 30.18" Hg 1022 hPa